Terminal Aerodrome Forecast
Issued by NWS Milwaukee/Sullivan, WI

Home | Current Version | Previous Version | Text Only | Print | Product List | Glossary On
Versions: 1 2 3 4 5 6 7 8 9 10 11 12 13 14 15 16 17 18 19 20 21 22 23 24 25 26 27 28
000
FTUS43 KMKX 300732 AAB
TAFMSN
TAF AMD
KMSN 300732Z 3008/0106 06005KT P6SM OVC025
     FM301000 09005KT P6SM SCT025 BKN035
     FM301400 08014KT P6SM SCT030 OVC045
     FM301900 08016G26KT 5SM RA SCT025 OVC035
     FM302300 06015G25KT 3SM RA BR OVC015
     FM010000 06015G22KT 3SM -SHRA BR OVC015
     FM010500 05012G19KT P6SM -SHRA OVC008=

USA.gov is the U.S. government's official web portal to all federal, state and local government web resources and services.